Time;durP1;ratioP1;P1;durP2;ratioP2;P2;SDS_P1;SDS_P2;PMS_P1;PMS_P2;Temp;Humidity;BMP_temperature;BMP_pressure;BME280_temperature;BME280_humidity;BME280_pressure;Samples;Min_cycle;Max_cycle;Signal;HPM_P1;HPM_P2
2022/04/12 00:02:25;;;;;;;;;;;;;;;7.41;38.72;97951.59;12839317;23;19905;-85
2022/04/12 00:07:46;;;;;;;;;;;;;;;7.35;38.79;97944.81;12839553;23;19932;-82
2022/04/12 00:13:07;;;;;;;;;;;;;;;7.34;38.77;97943.34;12839372;23;19916;-85
2022/04/12 00:24:08;;;;;;;;;;;;;;;7.21;38.50;97938.09;12863571;23;19912;-84
2022/04/12 00:29:29;;;;;;;;;;;;;;;7.19;38.24;97938.66;12838395;23;19908;-81
2022/04/12 00:34:50;;;;;;;;;;;;;;;7.04;38.51;97936.72;12789121;23;19911;-79
2022/04/12 00:40:27;;;;;;;;;;;;;;;6.95;38.77;97934.59;12718690;23;19925;-80
2022/04/12 00:45:49;;;;;;;;;;;;;;;6.97;39.06;97931.97;12754443;23;19904;-80
2022/04/12 00:51:11;;;;;;;;;;;;;;;6.87;39.51;97933.91;12749281;23;19920;-85
2022/04/12 00:56:33;;;;;;;;;;;;;;;6.84;39.72;97932.25;12729824;23;19921;-83
2022/04/12 01:44:33;;;;;;;;;;;;;;;6.46;40.08;97938.00;12738030;23;19946;-75
2022/04/12 01:49:55;;;;;;;;;;;;;;;6.44;40.03;97943.38;12695524;23;19973;-84
2022/04/12 01:55:17;;;;;;;;;;;;;;;6.39;40.44;97936.78;12715944;23;19911;-87
2022/04/12 02:06:43;;;;;;;;;;;;;;;6.14;41.80;97942.22;12792838;23;19920;-83
2022/04/12 02:18:06;;;;;;;;;;;;;;;5.75;42.44;97940.84;12788555;23;19921;-85
2022/04/12 02:29:29;;;;;;;;;;;;;;;5.57;42.34;97928.13;12748628;23;20708;-85
2022/04/12 02:34:51;;;;;;;;;;;;;;;5.60;42.62;97933.31;12751330;23;19912;-86
2022/04/12 02:52:24;;;;;;;;;;;;;;;5.58;42.96;97935.16;12760251;23;19939;-86
2022/04/12 03:22:11;;;;;;;;;;;;;;;5.27;42.82;97946.25;12797351;23;19920;-88
2022/04/12 03:33:34;;;;;;;;;;;;;;;5.23;43.44;97954.19;12742379;23;19912;-78
2022/04/12 03:44:57;;;;;;;;;;;;;;;5.12;44.09;97968.41;12793479;23;19905;-83
2022/04/12 03:50:19;;;;;;;;;;;;;;;5.07;43.67;97961.00;12752580;23;19928;-82
2022/04/12 04:07:44;;;;;;;;;;;;;;;4.89;44.45;97960.81;12740832;23;20919;-80
2022/04/12 04:13:26;;;;;;;;;;;;;;;4.78;44.60;97952.13;12820086;23;19935;-81
2022/04/12 04:18:48;;;;;;;;;;;;;;;4.74;45.12;97952.50;12797227;23;19924;-84
2022/04/12 04:36:28;;;;;;;;;;;;;;;4.87;46.08;97959.88;12750606;23;19913;-79
2022/04/12 05:18:53;;;;;;;;;;;;;;;7.49;44.61;98000.81;12738901;23;20675;31
2022/04/12 05:24:28;;;;;;;;;;;;;;;8.61;44.06;98007.84;12795964;23;19952;-78
2022/04/12 05:29:50;;;;;;;;;;;;;;;9.67;41.11;98015.97;12747123;23;19928;-87
2022/04/12 05:41:13;;;;;;;;;;;;;;;20.52;30.94;98035.47;12679306;23;19948;-87
2022/04/12 05:46:34;;;;;;;;;;;;;;;26.08;21.58;98037.16;12617316;23;20343;-87
2022/04/12 05:51:56;;;;;;;;;;;;;;;28.49;21.50;98063.06;12656564;23;19928;-87
2022/04/12 05:57:16;;;;;;;;;;;;;;;31.17;18.46;98074.34;12733730;23;19920;-86
2022/04/12 06:02:39;;;;;;;;;;;;;;;33.81;15.31;98073.47;12698665;23;19927;-87
2022/04/12 06:08:06;;;;;;;;;;;;;;;35.87;9.34;98077.28;12655289;23;19967;-88
2022/04/12 06:13:27;;;;;;;;;;;;;;;37.91;9.23;98073.59;12718375;23;19921;-87
2022/04/12 06:18:47;;;;;;;;;;;;;;;38.49;7.99;98069.94;12676923;23;19925;-86
2022/04/12 06:24:08;;;;;;;;;;;;;;;38.02;7.31;98077.53;12716961;23;19928;-87
2022/04/12 06:29:29;;;;;;;;;;;;;;;37.95;6.11;98076.38;12697423;23;20339;-87
2022/04/12 06:34:51;;;;;;;;;;;;;;;37.35;5.96;98063.22;12697366;23;19925;-87
2022/04/12 06:40:15;;;;;;;;;;;;;;;38.31;5.56;98074.28;12717165;23;19927;-86
2022/04/12 06:45:36;;;;;;;;;;;;;;;39.02;5.09;98070.72;12716883;23;19928;-87
2022/04/12 06:50:57;;;;;;;;;;;;;;;39.72;4.71;98077.97;12697294;23;19920;-87
2022/04/12 06:56:27;;;;;;;;;;;;;;;40.26;4.18;98071.13;12668942;23;19927;-87
2022/04/12 07:01:48;;;;;;;;;;;;;;;41.18;3.95;98079.81;12715896;23;19921;-89
2022/04/12 07:07:09;;;;;;;;;;;;;;;42.03;3.75;98076.88;12697212;23;19947;-89
2022/04/12 07:12:30;;;;;;;;;;;;;;;42.18;3.21;98080.47;12696227;23;19931;-89
2022/04/12 07:17:50;;;;;;;;;;;;;;;41.98;3.16;98076.41;12696503;23;19971;-91
2022/04/12 07:23:11;;;;;;;;;;;;;;;42.69;2.99;98077.66;12716425;23;19920;-89
2022/04/12 07:28:33;;;;;;;;;;;;;;;42.79;2.93;98094.66;12653008;23;19920;-88
2022/04/12 07:34:02;;;;;;;;;;;;;;;41.85;3.01;98092.53;12679796;23;20213;-89
2022/04/12 07:39:24;;;;;;;;;;;;;;;42.02;3.22;98090.84;12696911;23;20359;-89
2022/04/12 07:44:45;;;;;;;;;;;;;;;41.91;2.97;98101.00;12696038;23;19927;-89
2022/04/12 07:50:06;;;;;;;;;;;;;;;41.64;2.86;98089.94;12698829;23;19944;-89
2022/04/12 07:55:27;;;;;;;;;;;;;;;40.45;3.38;98094.41;12676269;23;19921;-90
2022/04/12 08:00:48;;;;;;;;;;;;;;;41.10;3.61;98091.22;12679689;23;20273;-89
2022/04/12 08:06:09;;;;;;;;;;;;;;;42.48;2.88;98080.31;12701390;23;19931;-90
2022/04/12 08:11:31;;;;;;;;;;;;;;;42.98;3.08;98078.97;12679892;23;20011;-93
2022/04/12 08:16:52;;;;;;;;;;;;;;;43.52;3.03;98086.03;12700929;23;19924;-90
2022/04/12 08:22:13;;;;;;;;;;;;;;;45.59;2.06;98086.69;12675772;23;19921;-90
2022/04/12 08:27:55;;;;;;;;;;;;;;;46.31;1.97;98089.00;12703619;23;19921;-90
2022/04/12 08:33:16;;;;;;;;;;;;;;;48.21;1.73;98072.38;12719434;23;20356;-89
2022/04/12 08:38:37;;;;;;;;;;;;;;;48.98;1.24;98071.97;12698366;23;20317;-89
2022/04/12 08:43:58;;;;;;;;;;;;;;;47.20;1.38;98066.94;12678678;23;19944;-89
2022/04/12 08:49:19;;;;;;;;;;;;;;;45.12;2.29;98065.63;12699147;23;19936;-89
2022/04/12 08:54:41;;;;;;;;;;;;;;;46.88;1.98;98060.53;12719222;23;19931;-89
2022/04/12 09:00:03;;;;;;;;;;;;;;;46.68;1.79;98060.47;12698878;23;19925;-90
2022/04/12 09:05:52;;;;;;;;;;;;;;;46.88;1.81;98057.56;12685693;23;19921;-90
2022/04/12 09:11:14;;;;;;;;;;;;;;;46.19;1.64;98049.28;12720051;23;19992;-89
2022/04/12 09:16:41;;;;;;;;;;;;;;;45.91;2.23;98051.31;12699750;23;19921;-89
2022/04/12 09:22:11;;;;;;;;;;;;;;;45.68;2.34;98052.19;12739270;23;20291;-86
2022/04/12 09:27:34;;;;;;;;;;;;;;;43.87;2.71;98038.31;12679198;23;19975;-85
2022/04/12 09:33:01;;;;;;;;;;;;;;;43.70;3.00;98032.72;12700963;23;19921;-85
2022/04/12 09:38:39;;;;;;;;;;;;;;;42.69;3.40;98038.81;12697452;23;20415;-85
2022/04/12 09:44:12;;;;;;;;;;;;;;;43.79;3.06;98015.31;12719174;23;19949;-85
2022/04/12 09:49:48;;;;;;;;;;;;;;;45.55;2.81;98013.28;12695671;23;19925;-83
2022/04/12 09:55:09;;;;;;;;;;;;;;;44.72;2.64;98016.72;12694287;23;20320;-87
2022/04/12 10:00:50;;;;;;;;;;;;;;;46.00;2.38;98013.09;12700644;23;19927;-86
2022/04/12 10:06:13;;;;;;;;;;;;;;;44.53;2.63;98008.41;12697566;23;19991;-87
2022/04/12 10:11:35;;;;;;;;;;;;;;;44.96;2.82;97997.44;12698100;23;19928;-90
2022/04/12 10:16:56;;;;;;;;;;;;;;;44.78;3.00;97993.50;12717036;23;19927;-89
2022/04/12 10:22:17;;;;;;;;;;;;;;;45.25;2.56;98001.38;12697396;23;19924;-88
2022/04/12 10:27:47;;;;;;;;;;;;;;;45.14;2.67;97992.53;12678375;23;19924;-88
2022/04/12 10:33:09;;;;;;;;;;;;;;;45.28;2.92;97991.56;12717810;23;19924;-88
2022/04/12 10:38:38;;;;;;;;;;;;;;;44.94;2.35;97973.31;12696709;23;19995;-89
2022/04/12 10:43:59;;;;;;;;;;;;;;;45.21;2.31;97972.22;12697796;23;19927;-89
2022/04/12 10:49:21;;;;;;;;;;;;;;;45.01;2.52;97960.28;12697265;23;19930;-88
2022/04/12 10:54:46;;;;;;;;;;;;;;;43.76;2.48;97958.22;12654083;23;20027;-90
2022/04/12 11:00:08;;;;;;;;;;;;;;;40.80;3.22;97947.13;12697386;23;19920;-90
2022/04/12 11:05:45;;;;;;;;;;;;;;;34.51;6.39;97951.03;12696175;23;19992;-86
2022/04/12 11:11:06;;;;;;;;;;;;;;;31.46;8.42;97939.25;12717509;23;19975;-88
2022/04/12 11:16:28;;;;;;;;;;;;;;;28.73;10.56;97936.00;12696140;23;19921;-88
2022/04/12 11:21:50;;;;;;;;;;;;;;;27.28;12.52;97932.16;12697230;23;20236;-88
2022/04/12 11:27:11;;;;;;;;;;;;;;;26.74;13.44;97929.72;12741592;23;19927;-87
2022/04/12 11:32:32;;;;;;;;;;;;;;;26.03;13.63;97926.97;12720328;23;19924;-88
2022/04/12 11:37:53;;;;;;;;;;;;;;;24.81;14.63;97916.94;12700465;23;19920;-87
2022/04/12 11:43:26;;;;;;;;;;;;;;;24.24;14.19;97913.91;12679363;23;20362;-87
2022/04/12 11:48:47;;;;;;;;;;;;;;;24.35;14.85;97931.22;12720118;23;19972;-86
2022/04/12 11:54:27;;;;;;;;;;;;;;;24.33;15.10;97926.22;12654969;23;19944;-87
2022/04/12 11:59:49;;;;;;;;;;;;;;;23.86;16.17;97927.53;12679619;23;19920;-88
2022/04/12 12:05:10;;;;;;;;;;;;;;;23.83;14.62;97923.16;12706066;23;20260;-88
2022/04/12 12:10:30;;;;;;;;;;;;;;;22.85;15.48;97915.50;12699979;23;19921;-89
2022/04/12 12:15:51;;;;;;;;;;;;;;;22.55;15.52;97918.38;12720392;23;20188;-89
2022/04/12 12:21:12;;;;;;;;;;;;;;;22.63;16.32;97903.59;12719762;23;19927;-89
2022/04/12 12:26:34;;;;;;;;;;;;;;;22.91;16.31;97901.41;12700443;23;19921;-90
2022/04/12 12:31:56;;;;;;;;;;;;;;;22.71;16.41;97906.63;12698172;23;19927;-89
2022/04/12 12:37:16;;;;;;;;;;;;;;;22.94;16.45;97887.94;12699473;23;19944;-89
2022/04/12 12:42:37;;;;;;;;;;;;;;;22.26;15.92;97880.72;12719782;23;19927;-89
2022/04/12 12:47:58;;;;;;;;;;;;;;;22.54;15.98;97872.13;12739160;23;20235;-90
2022/04/12 12:53:24;;;;;;;;;;;;;;;22.28;16.34;97872.25;12739143;23;19927;-89
2022/04/12 12:58:45;;;;;;;;;;;;;;;21.73;16.94;97872.28;12740103;23;19988;-89
2022/04/12 13:04:07;;;;;;;;;;;;;;;22.30;16.55;97865.91;12751680;23;19920;-89
2022/04/12 13:09:27;;;;;;;;;;;;;;;21.97;16.57;97859.41;12718327;23;20225;-87
2022/04/12 13:14:49;;;;;;;;;;;;;;;21.67;15.91;97867.16;12719768;23;20236;-87
2022/04/12 13:20:15;;;;;;;;;;;;;;;21.12;16.65;97857.13;12720930;23;20350;-88
2022/04/12 13:25:37;;;;;;;;;;;;;;;21.18;16.93;97848.81;12718248;23;20328;-87
2022/04/12 13:30:58;;;;;;;;;;;;;;;20.81;17.08;97850.59;12738818;23;19921;-88
2022/04/12 13:36:19;;;;;;;;;;;;;;;20.60;16.42;97845.75;12698628;23;19921;-87
2022/04/12 13:41:41;;;;;;;;;;;;;;;20.61;16.14;97841.50;12747282;23;19927;-88
2022/04/12 13:47:03;;;;;;;;;;;;;;;20.84;16.86;97832.28;12717853;23;20048;-87
2022/04/12 13:52:24;;;;;;;;;;;;;;;20.97;16.86;97846.81;12718179;23;19987;-87
2022/04/12 13:57:48;;;;;;;;;;;;;;;20.88;17.59;97840.16;12738948;23;19928;-86
2022/04/12 14:03:11;;;;;;;;;;;;;;;20.44;18.35;97825.41;12697978;23;19924;-88
2022/04/12 14:08:33;;;;;;;;;;;;;;;20.50;16.64;97825.59;12739341;23;19992;-88
2022/04/12 14:13:53;;;;;;;;;;;;;;;20.46;17.75;97819.78;12717507;23;20327;-88
2022/04/12 14:19:14;;;;;;;;;;;;;;;20.61;17.31;97829.44;12717584;23;20348;-88
2022/04/12 14:24:35;;;;;;;;;;;;;;;20.37;18.53;97829.44;12717135;23;19921;-87
2022/04/12 14:29:57;;;;;;;;;;;;;;;19.96;18.86;97828.13;12738047;23;19936;-88
2022/04/12 14:35:17;;;;;;;;;;;;;;;19.92;18.88;97825.19;12738493;23;20323;-87
2022/04/12 14:40:38;;;;;;;;;;;;;;;19.94;19.75;97808.25;12728728;23;19924;-88
2022/04/12 14:45:59;;;;;;;;;;;;;;;19.94;19.88;97808.97;12717633;23;20324;-89
2022/04/12 14:51:20;;;;;;;;;;;;;;;19.79;20.05;97812.03;12697467;23;19920;-88
2022/04/12 14:56:41;;;;;;;;;;;;;;;19.87;19.61;97817.94;12717038;23;19926;-90
2022/04/12 15:02:01;;;;;;;;;;;;;;;19.92;18.91;97811.75;12739973;23;19931;-90
2022/04/12 15:07:22;;;;;;;;;;;;;;;19.78;18.39;97805.63;12700745;23;20275;-90
2022/04/12 15:12:44;;;;;;;;;;;;;;;19.13;19.84;97809.81;12721180;23;19920;-90
2022/04/12 15:18:05;;;;;;;;;;;;;;;18.86;21.04;97804.59;12740998;23;19921;-89
2022/04/12 15:23:25;;;;;;;;;;;;;;;18.86;21.42;97801.75;12741754;23;19920;-89
2022/04/12 15:28:46;;;;;;;;;;;;;;;18.81;21.55;97806.53;12721121;23;20236;-89
2022/04/12 15:34:06;;;;;;;;;;;;;;;18.78;21.83;97807.13;12700099;23;20318;-89
2022/04/12 15:39:28;;;;;;;;;;;;;;;18.81;21.94;97808.63;12717719;23;19925;-89
2022/04/12 15:44:48;;;;;;;;;;;;;;;18.73;22.33;97816.84;12740404;23;20351;-89
2022/04/12 15:50:09;;;;;;;;;;;;;;;18.39;22.72;97808.50;12699815;23;19921;-85
2022/04/12 15:55:30;;;;;;;;;;;;;;;18.33;22.56;97807.53;12720065;23;19921;-86
2022/04/12 16:00:52;;;;;;;;;;;;;;;18.26;23.00;97815.06;12720873;23;19920;-92
2022/04/12 16:06:17;;;;;;;;;;;;;;;18.12;23.53;97822.97;12723574;23;19973;-90
2022/04/12 16:11:40;;;;;;;;;;;;;;;17.88;23.40;97819.94;12720143;23;19920;-88
2022/04/12 16:17:10;;;;;;;;;;;;;;;17.78;23.59;97828.72;12721112;23;19920;-84
2022/04/12 16:22:31;;;;;;;;;;;;;;;17.62;23.77;97819.53;12720236;23;19928;-88
2022/04/12 16:27:54;;;;;;;;;;;;;;;17.55;23.85;97817.84;12720274;23;19924;-87
2022/04/12 16:33:14;;;;;;;;;;;;;;;17.50;24.20;97827.50;12720035;23;20324;-85
2022/04/12 16:38:35;;;;;;;;;;;;;;;17.39;24.01;97821.44;12740405;23;19967;-84
2022/04/12 16:43:56;;;;;;;;;;;;;;;17.19;24.29;97825.50;12719024;23;20316;-88
2022/04/12 16:49:16;;;;;;;;;;;;;;;16.91;24.90;97825.72;12699242;23;19927;-86
2022/04/12 16:54:48;;;;;;;;;;;;;;;16.72;25.04;97829.81;12648849;23;19921;-84
2022/04/12 17:00:21;;;;;;;;;;;;;;;16.64;24.89;97831.53;12625185;23;19949;-82
2022/04/12 17:05:45;;;;;;;;;;;;;;;16.46;25.22;97825.78;12632382;23;19929;-83
2022/04/12 17:11:17;;;;;;;;;;;;;;;16.38;25.43;97828.22;12719816;23;20328;-80
2022/04/12 17:16:39;;;;;;;;;;;;;;;16.31;25.62;97833.59;12655799;23;19928;-81
2022/04/12 19:17:36;;;;;;;;;;;;;;;13.96;29.88;97872.78;12671960;23;19921;-84
2022/04/12 19:22:57;;;;;;;;;;;;;;;13.91;29.73;97883.06;12712006;23;19929;-84
2022/04/12 19:28:20;;;;;;;;;;;;;;;13.81;29.80;97879.69;12762988;23;19911;-84
2022/04/12 20:10:25;;;;;;;;;;;;;;;13.29;30.51;97878.06;12746748;23;19925;-82
2022/04/12 20:16:10;;;;;;;;;;;;;;;13.04;31.36;97895.50;12887279;23;19911;-84
2022/04/12 20:21:31;;;;;;;;;;;;;;;12.90;31.54;97889.75;12856988;23;19920;-86
2022/04/12 20:26:52;;;;;;;;;;;;;;;12.88;31.47;97886.09;12898894;23;19968;-85
2022/04/12 20:32:16;;;;;;;;;;;;;;;12.82;31.89;97877.31;12900526;23;19935;-83
2022/04/12 20:37:37;;;;;;;;;;;;;;;12.83;31.54;97882.31;12898916;23;19959;-85
2022/04/12 20:42:59;;;;;;;;;;;;;;;12.74;31.64;97886.00;12878336;23;19926;-83
2022/04/12 20:48:22;;;;;;;;;;;;;;;12.76;31.49;97891.72;12878598;23;19920;-86
2022/04/12 20:53:46;;;;;;;;;;;;;;;12.70;32.04;97882.19;12919535;23;20317;-86
2022/04/12 20:59:08;;;;;;;;;;;;;;;12.61;31.83;97884.50;12877808;23;19936;-87
2022/04/12 21:04:29;;;;;;;;;;;;;;;12.57;32.14;97883.53;12918991;23;19915;-86
2022/04/12 21:09:50;;;;;;;;;;;;;;;12.53;31.99;97884.00;12876793;23;19923;-80
2022/04/12 21:15:11;;;;;;;;;;;;;;;12.50;32.39;97878.88;12898260;23;19920;-85
2022/04/12 21:20:37;;;;;;;;;;;;;;;12.43;32.47;97888.97;12879618;23;19920;-87
2022/04/12 21:25:59;;;;;;;;;;;;;;;12.33;32.81;97885.53;12877264;23;19916;-86
2022/04/12 21:31:22;;;;;;;;;;;;;;;12.29;32.54;97880.41;12898369;23;19920;-87
2022/04/12 21:36:45;;;;;;;;;;;;;;;12.25;32.65;97896.94;12877601;23;19927;-84
2022/04/12 21:42:06;;;;;;;;;;;;;;;12.25;32.56;97896.22;12876419;23;19949;-86
2022/04/12 21:47:27;;;;;;;;;;;;;;;12.17;32.82;97885.25;12918391;23;19910;-87
2022/04/12 21:52:48;;;;;;;;;;;;;;;12.11;33.09;97895.31;12876215;23;19919;-86
2022/04/12 21:58:09;;;;;;;;;;;;;;;12.11;32.96;97890.47;12877050;23;19919;-86
2022/04/12 22:03:30;;;;;;;;;;;;;;;12.04;32.95;97894.19;12896965;23;19931;-85
2022/04/12 22:08:52;;;;;;;;;;;;;;;11.94;33.09;97905.47;12854890;23;19920;-86
2022/04/12 22:14:15;;;;;;;;;;;;;;;11.87;33.21;97902.88;12855778;23;19960;-88
2022/04/12 22:19:36;;;;;;;;;;;;;;;11.86;33.32;97901.41;12895207;23;19935;-85
2022/04/12 22:24:57;;;;;;;;;;;;;;;11.82;33.26;97890.69;12874756;23;19904;-85
2022/04/12 22:30:19;;;;;;;;;;;;;;;11.78;33.28;97906.47;12895871;23;19923;-87
2022/04/12 22:35:40;;;;;;;;;;;;;;;11.71;33.30;97905.31;12854068;23;19946;-83
2022/04/12 22:41:01;;;;;;;;;;;;;;;11.65;34.10;97908.44;12875271;23;19904;-85
2022/04/12 22:46:22;;;;;;;;;;;;;;;11.62;33.66;97920.84;12895729;23;19928;-87
2022/04/12 22:51:44;;;;;;;;;;;;;;;11.56;33.56;97920.41;12895899;23;19935;-84
2022/04/12 22:57:05;;;;;;;;;;;;;;;11.49;33.96;97926.97;12875954;23;19904;-86
2022/04/12 23:02:27;;;;;;;;;;;;;;;11.46;34.36;97928.88;12874692;23;19939;-85
2022/04/12 23:07:48;;;;;;;;;;;;;;;11.38;34.51;97927.59;12875090;23;19974;-85
2022/04/12 23:13:09;;;;;;;;;;;;;;;11.25;34.50;97914.88;12903553;23;19931;-87
2022/04/12 23:18:31;;;;;;;;;;;;;;;11.17;34.62;97922.69;12896292;23;19919;-86
2022/04/12 23:23:54;;;;;;;;;;;;;;;11.05;34.87;97908.66;12899238;23;19943;-85
2022/04/12 23:29:15;;;;;;;;;;;;;;;10.90;35.36;97906.19;12900151;23;19927;-87
2022/04/12 23:34:36;;;;;;;;;;;;;;;10.79;35.73;97909.63;12900333;23;19904;-85
2022/04/12 23:39:58;;;;;;;;;;;;;;;10.66;36.08;97891.31;12899893;23;19920;-86
2022/04/12 23:45:19;;;;;;;;;;;;;;;10.58;36.29;97893.53;12879384;23;19927;-86
2022/04/12 23:50:41;;;;;;;;;;;;;;;10.50;36.55;97896.47;12879163;23;19931;-85
2022/04/12 23:56:02;;;;;;;;;;;;;;;10.37;36.89;97888.59;12858187;23;19972;-86
